createdAt,value
2022-08-03T00:00:49.197Z,3.63
2022-08-03T00:03:19.346Z,3.58
2022-08-03T00:06:04.215Z,2.90
2022-08-03T00:08:40.122Z,4.50
2022-08-03T00:11:10.494Z,3.17
2022-08-03T00:13:40.547Z,3.08
2022-08-03T00:16:11.038Z,2.40
2022-08-03T00:18:41.361Z,3.88
2022-08-03T00:21:11.574Z,3.35
2022-08-03T00:23:52.139Z,3.90
2022-08-03T00:26:22.994Z,2.22
2022-08-03T00:28:53.032Z,6.70
2022-08-03T00:31:40.273Z,5.85
2022-08-03T00:34:13.054Z,3.55
2022-08-03T00:36:43.492Z,6.43
2022-08-03T00:39:13.490Z,8.38
2022-08-03T00:41:43.539Z,8.25
2022-08-03T00:44:13.533Z,8.68
2022-08-03T00:46:43.604Z,8.00
2022-08-03T00:49:13.639Z,10.25
2022-08-03T00:51:43.807Z,7.97
2022-08-03T00:54:14.618Z,7.57
2022-08-03T00:56:59.664Z,6.80
2022-08-03T00:59:31.351Z,7.25
2022-08-03T01:02:01.408Z,7.35
2022-08-03T01:04:31.456Z,10.88
2022-08-03T01:07:10.973Z,12.25
2022-08-03T01:09:47.223Z,12.88
2022-08-03T01:12:17.567Z,7.00
2022-08-03T01:15:17.003Z,12.80
2022-08-03T01:17:53.995Z,6.68
2022-08-03T01:20:26.645Z,9.23
2022-08-03T01:23:15.419Z,9.77
2022-08-03T01:26:08.558Z,11.57
2022-08-03T01:28:47.447Z,6.18
2022-08-03T01:31:22.095Z,9.52
2022-08-03T01:33:55.916Z,7.32
2022-08-03T01:36:28.760Z,4.75
2022-08-03T01:39:00.700Z,5.30
2022-08-03T01:41:35.076Z,6.85
2022-08-03T01:44:29.827Z,4.55
2022-08-03T01:46:59.787Z,5.55
2022-08-03T01:49:31.703Z,3.50
2022-08-03T01:52:05.393Z,6.70
2022-08-03T01:54:42.256Z,2.58
2022-08-03T01:57:13.184Z,2.78
2022-08-03T01:59:44.918Z,2.95
2022-08-03T02:02:33.522Z,2.97
2022-08-03T02:05:05.977Z,3.40
2022-08-03T02:07:42.064Z,1.65
2022-08-03T02:10:13.291Z,2.30
2022-08-03T02:12:46.056Z,3.33
2022-08-03T02:15:16.873Z,2.97
2022-08-03T02:17:47.867Z,2.17
2022-08-03T02:20:18.481Z,3.95
2022-08-03T02:22:48.562Z,2.83
2022-08-03T02:25:18.571Z,3.28
2022-08-03T02:27:53.271Z,4.78
2022-08-03T02:30:24.526Z,3.55
2022-08-03T02:32:56.095Z,3.35
2022-08-03T02:35:27.526Z,2.20
2022-08-03T02:37:59.912Z,3.72
2022-08-03T02:40:31.140Z,3.58
2022-08-03T02:43:04.085Z,2.45
2022-08-03T02:45:36.170Z,3.40
2022-08-03T02:48:07.091Z,5.78
2022-08-03T02:50:37.168Z,3.08
2022-08-03T02:53:08.059Z,2.72
2022-08-03T02:55:45.633Z,5.57
2022-08-03T02:58:17.736Z,3.97
2022-08-03T03:00:49.130Z,3.92
2022-08-03T03:03:19.879Z,2.65
2022-08-03T03:05:55.111Z,2.60
2022-08-03T03:08:28.794Z,3.10
2022-08-03T03:11:00.332Z,2.50
2022-08-03T03:13:31.209Z,3.55
2022-08-03T03:16:02.742Z,1.58
2022-08-03T03:18:33.755Z,3.67
2022-08-03T03:21:04.219Z,2.85
2022-08-03T03:23:38.587Z,4.43
2022-08-03T03:26:09.225Z,4.75
2022-08-03T03:28:39.607Z,4.15
2022-08-03T03:31:09.880Z,3.08
2022-08-03T03:33:40.056Z,3.17
2022-08-03T03:36:10.336Z,3.45
2022-08-03T03:38:40.409Z,2.10
2022-08-03T03:41:10.560Z,3.22
2022-08-03T03:43:40.746Z,4.00
2022-08-03T03:46:13.105Z,2.08
2022-08-03T03:48:43.070Z,3.22
2022-08-03T03:51:13.184Z,3.65
2022-08-03T03:54:03.510Z,2.50
2022-08-03T03:56:33.765Z,3.28
2022-08-03T03:59:03.848Z,3.10
2022-08-03T04:01:33.915Z,3.58
2022-08-03T04:04:23.830Z,2.80
2022-08-03T04:07:12.512Z,5.70
2022-08-03T04:10:08.902Z,1.92
2022-08-03T04:12:50.459Z,3.80
2022-08-03T04:15:22.500Z,2.35
2022-08-03T04:17:54.144Z,2.28
2022-08-03T04:20:24.362Z,4.07
2022-08-03T04:22:54.840Z,2.50
2022-08-03T04:25:26.289Z,2.92
2022-08-03T04:27:59.515Z,2.65
2022-08-03T04:30:50.976Z,2.03
2022-08-03T04:33:23.607Z,2.78
2022-08-03T04:36:02.603Z,4.40
2022-08-03T04:38:36.923Z,1.83
2022-08-03T04:41:07.714Z,2.17
2022-08-03T04:43:40.885Z,3.85
2022-08-03T04:46:11.354Z,3.78
2022-08-03T04:48:44.780Z,3.45
2022-08-03T04:51:15.066Z,2.78
2022-08-03T04:53:45.120Z,2.25
2022-08-03T04:56:15.075Z,2.95
2022-08-03T04:58:45.504Z,3.78
2022-08-03T05:01:16.648Z,2.70
2022-08-03T05:03:47.191Z,2.35
2022-08-03T05:06:17.210Z,3.97
2022-08-03T05:08:48.824Z,2.08
2022-08-03T05:11:21.031Z,4.70
2022-08-03T05:13:51.073Z,4.60
2022-08-03T05:16:21.122Z,5.00
2022-08-03T05:18:51.324Z,4.40
2022-08-03T05:21:21.364Z,5.40
2022-08-03T05:23:51.454Z,6.70
2022-08-03T05:26:21.508Z,3.50
2022-08-03T05:28:52.793Z,3.22
2022-08-03T05:31:22.775Z,5.38
2022-08-03T05:33:52.954Z,5.63
2022-08-03T05:36:23.049Z,4.95
2022-08-03T05:38:53.041Z,5.57
2022-08-03T05:41:37.036Z,7.03
2022-08-03T05:44:07.583Z,5.93
2022-08-03T05:46:37.577Z,8.18
2022-08-03T05:49:07.628Z,12.07
2022-08-03T05:51:37.754Z,10.35
2022-08-03T05:54:07.809Z,10.52
2022-08-03T05:56:37.889Z,15.75
2022-08-03T05:59:35.746Z,19.02
2022-08-03T06:01:58.196Z,18.48
2022-08-03T06:04:28.256Z,19.27
2022-08-03T06:06:59.202Z,21.83
2022-08-03T06:09:31.912Z,21.00
2022-08-03T06:12:20.387Z,24.23
2022-08-03T06:14:50.541Z,25.05
2022-08-03T06:17:20.642Z,31.98
2022-08-03T06:19:52.327Z,31.98
2022-08-03T06:22:23.405Z,32.47
2022-08-03T06:24:58.658Z,41.60
2022-08-03T06:27:36.548Z,46.60
2022-08-03T06:30:08.800Z,34.55
2022-08-03T06:32:41.025Z,43.60
2022-08-03T06:35:11.123Z,43.72
2022-08-03T06:37:50.457Z,49.03
2022-08-03T06:40:24.633Z,38.80
2022-08-03T06:42:55.048Z,40.17
2022-08-03T06:45:26.171Z,47.40
2022-08-03T06:48:04.110Z,50.33
2022-08-03T06:50:34.592Z,46.75
2022-08-03T06:53:05.041Z,57.58
2022-08-03T06:55:35.449Z,52.78
2022-08-03T06:58:12.468Z,65.47
2022-08-03T07:00:42.499Z,58.65
2022-08-03T07:03:12.553Z,57.58
2022-08-03T07:05:43.190Z,60.72
2022-08-03T07:08:13.683Z,62.90
2022-08-03T07:10:44.855Z,72.25
2022-08-03T07:13:14.894Z,71.90
2022-08-03T07:15:55.490Z,73.20
2022-08-03T07:18:29.710Z,81.50
2022-08-03T07:21:00.104Z,79.70
2022-08-03T07:23:30.137Z,86.15
2022-08-03T07:26:00.166Z,83.65
2022-08-03T07:28:30.332Z,87.35
2022-08-03T07:31:00.320Z,80.85
2022-08-03T07:33:30.344Z,78.03
2022-08-03T07:36:00.314Z,85.43
2022-08-03T07:38:30.586Z,89.95
2022-08-03T07:41:00.551Z,96.15
2022-08-03T07:43:30.628Z,84.07
2022-08-03T07:46:00.702Z,88.68
2022-08-03T07:48:30.876Z,85.82
2022-08-03T07:51:01.104Z,89.80
2022-08-03T07:53:31.129Z,87.72
2022-08-03T07:56:01.202Z,79.65
2022-08-03T07:58:35.499Z,89.47
2022-08-03T08:01:05.881Z,93.53
2022-08-03T08:03:49.877Z,88.85
2022-08-03T08:06:25.643Z,97.65
2022-08-03T08:09:01.882Z,99.47
2022-08-03T08:11:34.806Z,90.50
2022-08-03T08:14:07.613Z,119.25
2022-08-03T08:16:37.695Z,109.65
2022-08-03T08:19:08.443Z,120.38
2022-08-03T08:21:52.928Z,146.90
2022-08-03T08:24:30.870Z,139.95
2022-08-03T08:27:01.679Z,130.25
2022-08-03T08:29:31.739Z,131.68
2022-08-03T08:32:01.717Z,126.75
2022-08-03T08:34:32.006Z,138.02
2022-08-03T08:37:02.748Z,139.75
2022-08-03T08:39:32.856Z,149.15
2022-08-03T08:42:07.844Z,142.80
2022-08-03T08:44:37.899Z,135.52
2022-08-03T08:47:08.301Z,142.05
2022-08-03T08:49:39.728Z,134.60
2022-08-03T08:52:29.527Z,145.70
2022-08-03T08:55:02.146Z,141.15
2022-08-03T08:57:43.409Z,138.85
2022-08-03T09:00:16.739Z,143.40
2022-08-03T09:02:47.401Z,141.25
2022-08-03T09:05:18.629Z,132.82
2022-08-03T09:07:51.794Z,136.25
2022-08-03T09:10:23.009Z,133.15
2022-08-03T09:12:53.422Z,111.47
2022-08-03T09:15:24.986Z,127.70
2022-08-03T09:17:56.985Z,99.95
2022-08-03T09:20:29.100Z,106.70
2022-08-03T09:22:59.376Z,96.50
2022-08-03T09:25:30.348Z,75.63
2022-08-03T09:28:10.364Z,136.63
2022-08-03T09:30:41.722Z,100.88
2022-08-03T09:33:12.951Z,86.20
2022-08-03T09:35:53.629Z,86.80
2022-08-03T09:38:26.455Z,86.53
2022-08-03T09:41:00.006Z,101.88
2022-08-03T09:43:45.802Z,106.85
2022-08-03T09:46:15.731Z,144.27
2022-08-03T09:48:45.808Z,106.22
2022-08-03T09:51:32.882Z,120.30
2022-08-03T09:54:16.290Z,140.75
2022-08-03T09:56:48.875Z,134.68
2022-08-03T09:59:29.144Z,145.80
2022-08-03T10:02:02.266Z,148.70
2022-08-03T10:04:32.381Z,127.63
2022-08-03T10:07:07.283Z,146.18
2022-08-03T10:09:37.909Z,137.73
2022-08-03T10:12:11.600Z,195.18
2022-08-03T10:14:42.471Z,212.23
2022-08-03T10:17:12.872Z,249.95
2022-08-03T10:19:43.107Z,250.43
2022-08-03T10:22:16.054Z,282.45
2022-08-03T10:24:52.691Z,249.60
2022-08-03T10:27:23.836Z,287.85
2022-08-03T10:29:55.968Z,285.85
2022-08-03T10:32:30.813Z,276.00
2022-08-03T10:35:19.086Z,268.83
2022-08-03T10:37:58.707Z,273.00
2022-08-03T10:40:48.209Z,278.73
2022-08-03T10:43:27.763Z,322.02
2022-08-03T10:45:58.981Z,346.13
2022-08-03T10:48:29.843Z,462.02
2022-08-03T10:51:00.016Z,479.38
2022-08-03T10:53:39.038Z,533.95
2022-08-03T10:56:49.451Z,483.77
2022-08-03T10:59:27.555Z,521.65
2022-08-03T11:02:00.569Z,510.27
2022-08-03T11:04:31.061Z,576.45
2022-08-03T11:07:17.000Z,547.97
2022-08-03T11:09:48.757Z,647.03
2022-08-03T11:12:31.521Z,615.58
2022-08-03T11:15:07.158Z,692.00
2022-08-03T11:17:45.857Z,673.53
2022-08-03T11:20:17.025Z,683.80
2022-08-03T11:22:54.693Z,711.90
2022-08-03T11:25:53.128Z,733.20
2022-08-03T11:28:28.774Z,762.10
2022-08-03T11:31:46.697Z,768.65
2022-08-03T11:34:12.641Z,743.60
2022-08-03T11:37:01.006Z,832.00
2022-08-03T11:39:50.208Z,799.22
2022-08-03T11:42:23.327Z,511.08
2022-08-03T11:44:56.083Z,736.22
2022-08-03T11:47:27.508Z,767.15
2022-08-03T11:49:59.307Z,768.60
2022-08-03T11:52:36.150Z,758.30
2022-08-03T11:55:10.176Z,688.45
2022-08-03T11:59:01.616Z,581.95
2022-08-03T12:00:32.220Z,596.03
2022-08-03T12:03:07.658Z,459.55
2022-08-03T12:05:52.007Z,493.85
2022-08-03T12:08:28.506Z,301.80
2022-08-03T12:11:00.098Z,485.45
2022-08-03T12:14:44.211Z,504.17
2022-08-03T12:16:49.848Z,360.85
2022-08-03T12:19:20.018Z,331.42
2022-08-03T12:21:57.109Z,307.85
2022-08-03T12:24:40.066Z,288.58
2022-08-03T12:27:10.187Z,239.23
2022-08-03T12:29:40.278Z,182.80
2022-08-03T12:32:14.960Z,269.65
2022-08-03T12:34:47.344Z,218.07
2022-08-03T12:37:22.577Z,69.43
2022-08-03T12:40:02.686Z,88.60
2022-08-03T12:42:36.563Z,53.08
2022-08-03T12:45:20.425Z,64.30
2022-08-03T12:47:57.572Z,44.00
2022-08-03T12:50:31.928Z,25.38
2022-08-03T12:53:03.308Z,44.08
2022-08-03T12:55:57.097Z,24.27
2022-08-03T12:58:34.571Z,22.48
2022-08-03T13:01:10.168Z,66.40
2022-08-03T13:03:42.724Z,11.88
2022-08-03T13:06:17.075Z,16.17
2022-08-03T13:08:48.445Z,10.43
2022-08-03T13:11:23.313Z,10.52
2022-08-03T13:14:16.657Z,13.30
2022-08-03T13:16:50.041Z,12.77
2022-08-03T13:19:20.416Z,31.40
2022-08-03T13:22:01.904Z,16.35
2022-08-03T13:24:35.650Z,3.08
2022-08-03T13:28:02.022Z,10.05
2022-08-03T13:29:58.195Z,36.38
2022-08-03T13:32:28.308Z,16.88
2022-08-03T13:35:05.481Z,4.03
2022-08-03T13:37:35.871Z,2.78
2022-08-03T13:40:07.301Z,2.95
2022-08-03T13:42:38.884Z,3.83
2022-08-03T13:45:10.687Z,13.15
2022-08-03T13:47:40.904Z,4.15
2022-08-03T13:50:10.877Z,75.70
2022-08-03T13:52:41.029Z,3.42
2022-08-03T13:55:11.250Z,4.13
2022-08-03T13:58:19.051Z,4.93
2022-08-03T14:00:31.367Z,3.50
2022-08-03T14:03:16.586Z,1.73
2022-08-03T14:05:47.744Z,3.28
2022-08-03T14:08:18.401Z,3.78
2022-08-03T14:10:48.510Z,4.78
2022-08-03T14:13:18.548Z,3.38
2022-08-03T14:15:49.842Z,72.80
2022-08-03T14:18:28.564Z,3.83
2022-08-03T14:21:06.974Z,46.65
2022-08-03T14:23:38.232Z,2.00
2022-08-03T14:26:09.150Z,10.75
2022-08-03T14:28:39.270Z,3.47
2022-08-03T14:32:10.107Z,2.70
2022-08-03T14:33:59.934Z,5.03
2022-08-03T14:36:30.104Z,3.72
2022-08-03T14:39:01.465Z,28.05
2022-08-03T14:41:31.908Z,38.03
2022-08-03T14:44:02.582Z,6.40
2022-08-03T14:46:32.947Z,3.75
2022-08-03T14:50:37.749Z,3.08
2022-08-03T14:51:54.016Z,2.63
2022-08-03T14:54:24.338Z,5.43
2022-08-03T14:56:58.673Z,8.60
2022-08-03T14:59:28.871Z,4.30
2022-08-03T15:02:23.941Z,3.95
2022-08-03T15:04:57.538Z,7.03
2022-08-03T15:07:29.137Z,8.85
2022-08-03T15:10:02.445Z,3.53
2022-08-03T15:12:34.109Z,5.63
2022-08-03T15:15:06.379Z,13.25
2022-08-03T15:17:36.744Z,4.68
2022-08-03T15:20:17.193Z,7.38
2022-08-03T15:22:54.494Z,4.05
2022-08-03T15:26:27.851Z,4.80
2022-08-03T15:28:14.862Z,5.10
2022-08-03T15:30:44.879Z,4.72
2022-08-03T15:33:14.934Z,4.78
2022-08-03T15:35:46.591Z,6.40
2022-08-03T15:38:16.721Z,7.03
2022-08-03T15:40:46.849Z,5.45
2022-08-03T15:43:16.897Z,5.25
2022-08-03T15:45:46.978Z,7.75
2022-08-03T15:48:17.295Z,37.47
2022-08-03T15:50:48.218Z,6.85
2022-08-03T15:53:18.221Z,5.55
2022-08-03T15:55:48.512Z,5.97
2022-08-03T15:59:04.957Z,6.20
2022-08-03T16:01:08.964Z,5.68
2022-08-03T16:03:39.249Z,5.38
2022-08-03T16:06:09.440Z,10.93
2022-08-03T16:08:39.572Z,7.90
2022-08-03T16:11:09.861Z,5.93
2022-08-03T16:14:13.120Z,4.53
2022-08-03T16:16:29.897Z,6.40
2022-08-03T16:18:59.978Z,7.68
2022-08-03T16:21:48.069Z,15.52
2022-08-03T16:24:25.209Z,5.70
2022-08-03T16:27:00.527Z,6.00
2022-08-03T16:29:30.972Z,3.40
2022-08-03T16:32:09.387Z,3.97
2022-08-03T16:34:39.688Z,3.85
2022-08-03T16:37:35.736Z,4.03
2022-08-03T16:40:00.405Z,4.78
2022-08-03T16:42:30.426Z,3.97
2022-08-03T16:45:00.476Z,11.30
2022-08-03T16:47:30.469Z,2.90
2022-08-03T16:50:00.893Z,4.63
2022-08-03T16:52:30.876Z,3.58
2022-08-03T16:55:03.792Z,4.22
2022-08-03T16:57:58.555Z,3.28
2022-08-03T17:00:33.327Z,7.57
2022-08-03T17:03:12.770Z,3.80
2022-08-03T17:05:50.141Z,5.15
2022-08-03T17:08:26.772Z,4.00
2022-08-03T17:10:57.662Z,5.10
2022-08-03T17:13:39.994Z,5.65
2022-08-03T17:16:12.201Z,5.82
2022-08-03T17:21:20.260Z,6.47
2022-08-03T17:23:57.599Z,5.15
2022-08-03T17:26:30.685Z,5.40
2022-08-03T17:29:12.873Z,5.32
2022-08-03T17:31:48.821Z,8.15
2022-08-03T17:34:20.243Z,11.15
2022-08-03T17:37:06.085Z,9.93
2022-08-03T17:39:57.532Z,10.15
2022-08-03T17:42:29.969Z,8.35
2022-08-03T17:45:03.951Z,13.80
2022-08-03T17:50:24.108Z,10.85
2022-08-03T17:56:04.904Z,10.35
2022-08-03T17:58:52.504Z,6.40
2022-08-03T18:02:18.556Z,5.88
2022-08-03T18:05:03.333Z,4.65
2022-08-03T18:07:59.171Z,4.38
2022-08-03T18:10:35.004Z,7.60
2022-08-03T18:15:43.984Z,7.20
2022-08-03T18:18:14.771Z,8.57
2022-08-03T18:20:48.508Z,3.33
2022-08-03T18:23:36.213Z,5.70
2022-08-03T18:26:12.592Z,7.00
2022-08-03T18:28:44.259Z,3.38
2022-08-03T18:31:33.229Z,4.90
2022-08-03T18:34:20.331Z,4.82
2022-08-03T18:36:56.189Z,7.07
2022-08-03T18:39:27.458Z,3.85
2022-08-03T18:42:01.019Z,5.32
2022-08-03T18:44:45.686Z,7.15
2022-08-03T18:50:39.056Z,3.42
2022-08-03T18:53:19.500Z,2.83
2022-08-03T18:56:02.129Z,4.47
2022-08-03T18:58:55.796Z,4.78
2022-08-03T19:01:59.860Z,3.90
2022-08-03T19:04:33.617Z,2.38
2022-08-03T19:07:07.943Z,3.47
2022-08-03T19:09:41.209Z,2.47
2022-08-03T19:12:30.602Z,2.85
2022-08-03T19:15:03.146Z,3.05
2022-08-03T19:17:36.132Z,5.78
2022-08-03T19:20:10.352Z,6.38
2022-08-03T19:22:40.539Z,3.13
2022-08-03T19:25:16.878Z,8.73
2022-08-03T19:27:48.385Z,4.97
2022-08-03T19:30:38.854Z,3.53
2022-08-03T19:33:10.443Z,4.38
2022-08-03T19:35:55.216Z,4.32
2022-08-03T19:38:29.004Z,2.90
2022-08-03T19:41:02.315Z,7.80
2022-08-03T19:43:53.275Z,2.33
2022-08-03T19:46:30.298Z,2.97
2022-08-03T19:49:10.734Z,2.50
2022-08-03T19:52:01.194Z,7.28
2022-08-03T19:54:45.887Z,2.53
2022-08-03T19:57:24.696Z,2.50
2022-08-03T19:59:55.430Z,3.63
2022-08-03T20:02:27.793Z,3.85
2022-08-03T20:05:00.582Z,2.95
2022-08-03T20:07:32.978Z,6.05
2022-08-03T20:10:04.840Z,2.65
2022-08-03T20:12:39.030Z,3.28
2022-08-03T20:15:10.733Z,3.28
2022-08-03T20:17:54.617Z,3.35
2022-08-03T20:20:30.109Z,3.70
2022-08-03T20:23:01.774Z,3.63
2022-08-03T20:25:38.217Z,2.63
2022-08-03T20:28:14.302Z,3.47
2022-08-03T20:30:47.187Z,3.15
2022-08-03T20:33:19.035Z,3.75
2022-08-03T20:35:50.003Z,2.88
2022-08-03T20:38:20.164Z,3.72
2022-08-03T20:40:59.032Z,3.30
2022-08-03T20:43:29.406Z,4.65
2022-08-03T20:46:30.833Z,2.47
2022-08-03T20:48:49.811Z,3.92
2022-08-03T20:51:49.179Z,2.53
2022-08-03T20:54:22.682Z,2.72
2022-08-03T20:57:04.370Z,2.78
2022-08-03T20:59:50.383Z,2.50
2022-08-03T21:02:28.787Z,2.58
2022-08-03T21:05:03.574Z,5.80
2022-08-03T21:07:45.598Z,2.97
2022-08-03T21:10:35.794Z,4.25
2022-08-03T21:12:55.594Z,7.05
2022-08-03T21:13:09.823Z,4.97
2022-08-03T21:16:06.823Z,4.40
2022-08-03T21:18:43.498Z,3.35
2022-08-03T21:21:14.708Z,4.65
2022-08-03T21:23:48.161Z,5.03
2022-08-03T21:26:20.652Z,2.63
2022-08-03T21:28:51.624Z,2.78
2022-08-03T21:31:25.080Z,2.55
2022-08-03T21:33:57.031Z,2.90
2022-08-03T21:36:28.110Z,3.33
2022-08-03T21:38:58.825Z,4.00
2022-08-03T21:41:30.187Z,3.38
2022-08-03T21:44:01.305Z,3.15
2022-08-03T21:46:35.607Z,4.95
2022-08-03T21:50:05.805Z,4.28
2022-08-03T21:51:58.717Z,3.80
2022-08-03T21:54:35.157Z,2.17
2022-08-03T21:57:06.026Z,6.07
2022-08-03T21:59:38.235Z,2.40
2022-08-03T22:02:11.459Z,3.53
2022-08-03T22:04:56.395Z,3.00
2022-08-03T22:07:27.850Z,8.27
2022-08-03T22:09:58.935Z,3.65
2022-08-03T22:12:29.599Z,2.85
2022-08-03T22:15:01.994Z,5.97
2022-08-03T22:17:55.958Z,3.53
2022-08-03T22:20:23.663Z,3.17
2022-08-03T22:22:55.789Z,4.22
2022-08-03T22:25:29.507Z,4.75
2022-08-03T22:28:02.239Z,4.32
2022-08-03T22:30:33.422Z,3.10
2022-08-03T22:33:04.751Z,2.95
2022-08-03T22:35:47.517Z,3.28
2022-08-03T22:38:18.907Z,3.28
2022-08-03T22:40:51.142Z,4.55
2022-08-03T22:43:25.371Z,6.78
2022-08-03T22:46:09.742Z,2.58
2022-08-03T22:48:42.591Z,4.40
2022-08-03T22:51:12.763Z,4.88
2022-08-03T22:53:45.065Z,2.75
2022-08-03T22:56:15.188Z,3.67
2022-08-03T22:58:45.244Z,6.60
2022-08-03T23:01:18.908Z,5.57
2022-08-03T23:03:59.830Z,3.33
2022-08-03T23:06:38.421Z,5.00
2022-08-03T23:09:09.997Z,5.97
2022-08-03T23:11:46.026Z,4.80
2022-08-03T23:14:18.803Z,3.20
2022-08-03T23:16:50.285Z,3.08
2022-08-03T23:19:25.341Z,3.83
2022-08-03T23:22:03.279Z,3.33
2022-08-03T23:24:36.260Z,3.53
2022-08-03T23:27:07.304Z,2.97
2022-08-03T23:29:38.143Z,5.25
2022-08-03T23:32:08.653Z,3.13
2022-08-03T23:34:57.558Z,3.13
2022-08-03T23:37:27.713Z,4.60
2022-08-03T23:39:58.724Z,4.00
2022-08-03T23:42:29.209Z,3.88
2022-08-03T23:45:06.316Z,3.70
2022-08-03T23:47:47.428Z,3.97
2022-08-03T23:50:17.977Z,4.47
2022-08-03T23:53:00.114Z,4.57
2022-08-03T23:55:35.955Z,3.40
2022-08-03T23:58:18.051Z,3.30
